Time;durP1;ratioP1;P1;durP2;ratioP2;P2;SDS_P1;SDS_P2;PMS_P1;PMS_P2;Temp;Humidity;BMP_temperature;BMP_pressure;BME280_temperature;BME280_humidity;BME280_pressure;Samples;Min_cycle;Max_cycle;Signal;HPM_P1;HPM_P2
2023/05/25 00:00:53;;;;;;;12.47;6.17;;;21.40;46.10;;;;;;4918352;29;20468;-80
2023/05/25 00:03:27;;;;;;;13.87;6.77;;;21.40;46.10;;;;;;4918685;29;20457;-80
2023/05/25 00:05:56;;;;;;;20.23;7.00;;;21.30;46.00;;;;;;4917775;29;20453;-80
2023/05/25 00:08:26;;;;;;;12.97;7.33;;;21.30;45.90;;;;;;4916888;29;20539;-79
2023/05/25 00:10:58;;;;;;;14.13;7.20;;;21.30;46.10;;;;;;4917793;29;20453;-80
2023/05/25 00:13:34;;;;;;;12.80;6.73;;;21.30;46.00;;;;;;4917278;29;20492;-80
2023/05/25 00:16:03;;;;;;;8.90;6.20;;;21.20;46.00;;;;;;4917869;29;20453;-80
2023/05/25 00:18:31;;;;;;;12.50;6.93;;;21.20;46.00;;;;;;4916281;29;20473;-80
2023/05/25 00:21:04;;;;;;;12.20;7.00;;;21.20;46.00;;;;;;4917575;29;20457;-80
2023/05/25 00:23:34;;;;;;;9.77;6.20;;;21.20;46.00;;;;;;4916647;29;20950;-81
2023/05/25 00:26:02;;;;;;;12.27;6.40;;;21.20;46.00;;;;;;4918486;29;20521;-81
2023/05/25 00:28:30;;;;;;;11.60;6.50;;;21.10;46.00;;;;;;4916203;29;20449;-81
2023/05/25 00:30:59;;;;;;;14.87;7.10;;;21.10;46.00;;;;;;4916555;29;20449;-79
2023/05/25 00:33:27;;;;;;;13.70;5.90;;;21.10;46.00;;;;;;4916845;29;20548;-79
2023/05/25 00:35:56;;;;;;;12.10;6.40;;;21.10;46.00;;;;;;4917142;29;20460;-79
2023/05/25 00:38:24;;;;;;;8.57;5.83;;;21.00;45.90;;;;;;4916983;29;20485;-79
2023/05/25 00:40:56;;;;;;;11.03;6.50;;;21.00;45.80;;;;;;4917778;29;20480;-79
2023/05/25 00:43:24;;;;;;;12.10;6.20;;;21.00;46.00;;;;;;4917650;29;20456;-79
2023/05/25 00:45:52;;;;;;;18.67;6.20;;;21.00;46.10;;;;;;4939914;29;20556;-79
2023/05/25 00:48:20;;;;;;;9.57;5.50;;;20.90;45.90;;;;;;4946013;29;20450;-79
2023/05/25 00:50:49;;;;;;;9.03;5.87;;;20.90;45.80;;;;;;4941721;29;20436;-80
2023/05/25 00:53:17;;;;;;;13.27;7.27;;;20.90;45.90;;;;;;4933827;29;20530;-80
2023/05/25 00:55:49;;;;;;;14.20;8.20;;;20.90;45.90;;;;;;4928802;29;20464;-79
2023/05/25 00:58:21;;;;;;;13.37;7.50;;;20.90;45.80;;;;;;4935362;29;20494;-80
2023/05/25 01:00:49;;;;;;;15.20;9.00;;;20.80;45.80;;;;;;4936178;29;20460;-80
2023/05/25 01:03:20;;;;;;;13.00;8.07;;;20.80;45.90;;;;;;4935716;29;20945;-80
2023/05/25 01:05:49;;;;;;;14.70;8.53;;;20.80;45.90;;;;;;4929623;29;20490;-80
2023/05/25 01:08:17;;;;;;;14.97;9.40;;;20.80;46.00;;;;;;4938955;29;20467;-80
2023/05/25 01:10:49;;;;;;;15.90;10.13;;;20.70;45.70;;;;;;4933403;29;20440;-79
2023/05/25 01:17:11;;;;;;;15.07;9.57;;;20.80;46.40;;;;;;4933996;29;20407;-80
2023/05/25 01:19:40;;;;;;;15.53;10.30;;;20.70;45.90;;;;;;4944476;29;20474;-80
2023/05/25 01:22:12;;;;;;;12.73;9.23;;;20.60;45.80;;;;;;4950786;29;20447;-80
2023/05/25 01:24:43;;;;;;;14.10;9.63;;;20.60;45.90;;;;;;4952904;28;20822;-80
2023/05/25 01:27:14;;;;;;;19.10;10.30;;;20.60;45.90;;;;;;4936142;29;20452;-80
2023/05/25 01:29:44;;;;;;;15.93;9.50;;;20.60;46.00;;;;;;4939452;29;20503;-80
2023/05/25 01:32:12;;;;;;;16.30;10.20;;;20.60;46.00;;;;;;4940337;29;20447;-80
2023/05/25 01:34:41;;;;;;;17.30;9.63;;;20.50;45.80;;;;;;4940880;29;20472;-80
2023/05/25 01:37:12;;;;;;;14.97;9.80;;;20.50;45.80;;;;;;4940726;29;20451;-80
2023/05/25 01:39:40;;;;;;;14.43;9.50;;;20.50;45.70;;;;;;4940743;29;20471;-81
2023/05/25 01:42:08;;;;;;;15.00;9.43;;;20.50;45.80;;;;;;4940675;29;20448;-81
2023/05/25 01:44:36;;;;;;;17.87;10.50;;;20.50;45.70;;;;;;4940455;29;20479;-81
2023/05/25 01:47:07;;;;;;;15.47;9.93;;;20.50;45.80;;;;;;4953434;29;20450;-80
2023/05/25 01:49:40;;;;;;;14.93;10.07;;;20.50;45.80;;;;;;4955794;29;20470;-80
2023/05/25 01:52:12;;;;;;;19.90;10.50;;;20.40;45.70;;;;;;4961404;29;20505;-80
2023/05/25 01:54:42;;;;;;;15.87;10.17;;;20.40;45.70;;;;;;4952875;28;20502;-81
2023/05/25 01:57:12;;;;;;;17.40;10.00;;;20.40;45.90;;;;;;4960469;29;20868;-80
2023/05/25 01:59:40;;;;;;;14.30;9.50;;;20.40;45.80;;;;;;4955524;28;20474;-80
2023/05/25 02:02:08;;;;;;;15.57;9.87;;;20.40;45.90;;;;;;4947450;29;20503;-80
2023/05/25 02:04:36;;;;;;;13.63;8.80;;;20.30;45.70;;;;;;4941625;29;20464;-80
2023/05/25 02:07:05;;;;;;;14.73;9.50;;;20.30;45.70;;;;;;4937456;29;20468;-80
2023/05/25 02:09:34;;;;;;;16.37;10.07;;;20.30;45.60;;;;;;4941200;29;20444;-80
2023/05/25 02:12:02;;;;;;;19.47;10.03;;;20.30;45.80;;;;;;4940917;29;20435;-80
2023/05/25 02:14:30;;;;;;;14.50;9.03;;;20.30;45.70;;;;;;4940380;29;20484;-80
2023/05/25 02:17:00;;;;;;;13.00;8.97;;;20.30;45.70;;;;;;4939641;29;20452;-80
2023/05/25 02:19:28;;;;;;;13.33;9.07;;;20.20;45.70;;;;;;4940306;29;20476;-80
2023/05/25 02:21:56;;;;;;;17.60;9.70;;;20.20;45.70;;;;;;4939528;29;20874;-80
2023/05/25 02:24:25;;;;;;;12.33;8.63;;;20.20;45.70;;;;;;4939842;29;20460;-81
2023/05/25 02:26:54;;;;;;;13.43;8.20;;;20.20;45.70;;;;;;4933808;29;20456;-80
2023/05/25 02:29:22;;;;;;;12.83;8.60;;;20.20;45.60;;;;;;4938022;29;20953;-80
2023/05/25 02:31:50;;;;;;;16.70;9.50;;;20.20;45.60;;;;;;4939709;29;20456;-80
2023/05/25 02:34:18;;;;;;;11.83;8.43;;;20.10;45.50;;;;;;4939976;29;20546;-81
2023/05/25 02:36:46;;;;;;;12.70;9.00;;;20.10;45.60;;;;;;4939284;29;20432;-81
2023/05/25 02:39:15;;;;;;;12.37;8.50;;;20.10;45.50;;;;;;4939949;29;20475;-80
2023/05/25 02:41:43;;;;;;;13.10;8.00;;;20.10;45.60;;;;;;4938050;29;20440;-81
2023/05/25 02:44:12;;;;;;;12.10;8.37;;;20.10;45.80;;;;;;4938632;29;20512;-79
2023/05/25 02:46:40;;;;;;;12.67;8.40;;;20.00;45.60;;;;;;4938113;29;20448;-79
2023/05/25 02:49:08;;;;;;;14.23;8.93;;;20.00;45.50;;;;;;4937961;29;20455;-79
2023/05/25 02:51:36;;;;;;;13.20;8.30;;;20.10;45.50;;;;;;4937941;29;20503;-80
2023/05/25 02:54:05;;;;;;;12.40;8.47;;;20.00;45.70;;;;;;4939579;29;20535;-80
2023/05/25 02:56:33;;;;;;;13.70;8.90;;;20.00;45.70;;;;;;4940246;29;20444;-80
2023/05/25 03:03:06;;;;;;;12.80;8.27;;;20.00;45.60;;;;;;4943573;29;20398;-80
2023/05/25 03:05:35;;;;;;;12.70;7.83;;;19.90;46.20;;;;;;4941674;29;20467;-79
2023/05/25 03:08:03;;;;;;;10.67;8.03;;;19.90;45.70;;;;;;4938175;29;20511;-80
2023/05/25 03:10:30;;;;;;;12.47;7.63;;;19.90;45.80;;;;;;4946760;29;20479;-80
2023/05/25 03:12:58;;;;;;;10.17;7.70;;;19.90;45.60;;;;;;4939783;29;20479;-80
2023/05/25 03:15:26;;;;;;;10.60;7.90;;;19.90;45.60;;;;;;4945177;28;20476;-79
2023/05/25 03:17:59;;;;;;;12.47;7.90;;;19.80;45.50;;;;;;4949726;29;20452;-80
2023/05/25 03:20:29;;;;;;;11.07;7.60;;;19.80;45.40;;;;;;4938381;29;20444;-80
2023/05/25 03:22:57;;;;;;;11.20;7.70;;;19.80;45.40;;;;;;4932717;29;20501;-80
2023/05/25 03:25:25;;;;;;;11.00;7.47;;;19.80;45.50;;;;;;4937059;29;20488;-79
2023/05/25 03:27:53;;;;;;;13.40;7.60;;;19.80;45.60;;;;;;4937410;29;20451;-80
2023/05/25 03:30:22;;;;;;;12.50;8.10;;;19.80;45.50;;;;;;4936952;29;20483;-80
2023/05/25 03:32:51;;;;;;;10.80;7.50;;;19.80;45.60;;;;;;4945251;29;20448;-80
2023/05/25 03:35:19;;;;;;;10.23;7.30;;;19.80;45.50;;;;;;4937065;29;20866;-80
2023/05/25 03:37:48;;;;;;;10.80;7.57;;;19.80;45.50;;;;;;4937270;29;20455;-79
2023/05/25 03:40:16;;;;;;;14.60;6.90;;;19.80;45.50;;;;;;4936360;29;20444;-79
2023/05/25 03:42:45;;;;;;;12.03;7.20;;;19.70;45.40;;;;;;4935950;29;20514;-79
2023/05/25 03:45:13;;;;;;;10.50;7.63;;;19.70;45.40;;;;;;4936241;29;20985;-78
2023/05/25 03:47:41;;;;;;;9.53;6.73;;;19.70;45.40;;;;;;4936119;29;20500;-79
2023/05/25 03:50:10;;;;;;;12.37;6.93;;;19.70;45.40;;;;;;4936480;29;20480;-79
2023/05/25 03:52:38;;;;;;;10.70;6.77;;;19.70;45.40;;;;;;4935667;29;20456;-80
2023/05/25 03:55:08;;;;;;;10.70;6.60;;;19.70;45.40;;;;;;4936324;29;20487;-80
2023/05/25 03:57:36;;;;;;;9.97;6.40;;;19.70;45.40;;;;;;4941587;29;20511;-81
2023/05/25 04:00:05;;;;;;;11.37;7.07;;;19.70;45.20;;;;;;4944015;29;20901;-79
2023/05/25 04:02:33;;;;;;;10.50;7.10;;;19.70;45.30;;;;;;4950395;29;20538;-80
2023/05/25 04:05:01;;;;;;;9.57;6.57;;;19.70;45.30;;;;;;4945093;28;20479;-79
2023/05/25 04:07:29;;;;;;;9.90;6.77;;;19.70;45.20;;;;;;4945736;29;20447;-80
2023/05/25 04:09:58;;;;;;;9.80;6.97;;;19.70;45.40;;;;;;4937482;29;20479;-80
2023/05/25 04:12:28;;;;;;;11.67;6.70;;;19.70;45.30;;;;;;4945787;29;20455;-80
2023/05/25 04:14:56;;;;;;;9.37;6.47;;;19.70;45.30;;;;;;4940317;29;20471;-80
2023/05/25 04:17:24;;;;;;;12.27;6.67;;;19.70;45.20;;;;;;4943889;29;20979;-80
2023/05/25 04:19:52;;;;;;;9.87;6.57;;;19.70;45.10;;;;;;4937523;29;20449;-81
2023/05/25 04:22:20;;;;;;;9.30;6.53;;;19.70;45.20;;;;;;4932657;29;20448;-80
2023/05/25 04:24:48;;;;;;;11.77;6.23;;;19.70;45.20;;;;;;4938216;29;20527;-81
2023/05/25 04:27:19;;;;;;;10.83;6.60;;;19.80;45.30;;;;;;4937852;29;20452;-80
2023/05/25 04:29:49;;;;;;;10.13;6.40;;;19.80;45.20;;;;;;4935428;29;20452;-80
2023/05/25 04:32:17;;;;;;;9.00;6.10;;;19.70;45.00;;;;;;4938040;29;20479;-81
2023/05/25 04:34:47;;;;;;;8.90;5.93;;;19.70;45.10;;;;;;4936926;29;20914;-80
2023/05/25 04:37:16;;;;;;;8.90;5.93;;;19.80;45.10;;;;;;4933149;29;20475;-79
2023/05/25 04:39:44;;;;;;;8.70;6.07;;;19.80;45.10;;;;;;4932793;29;20451;-80
2023/05/25 04:42:12;;;;;;;8.70;5.90;;;19.80;45.10;;;;;;4943359;29;20439;-80
2023/05/25 04:44:40;;;;;;;8.93;6.30;;;19.80;45.00;;;;;;4936280;29;20468;-80
2023/05/25 04:47:11;;;;;;;7.80;5.70;;;19.80;45.10;;;;;;4937511;29;20452;-80
2023/05/25 04:49:39;;;;;;;6.20;5.50;;;19.80;44.90;;;;;;4947773;29;20462;-80
2023/05/25 04:52:07;;;;;;;9.10;5.93;;;19.80;45.00;;;;;;4948434;29;20447;-80
2023/05/25 04:54:37;;;;;;;10.47;5.77;;;19.80;45.00;;;;;;4947861;28;20456;-80
2023/05/25 04:57:05;;;;;;;7.73;5.53;;;19.80;45.00;;;;;;4943898;29;20447;-80
2023/05/25 04:59:33;;;;;;;7.20;5.60;;;19.80;45.00;;;;;;4939010;29;20852;-80
2023/05/25 05:02:02;;;;;;;7.13;5.80;;;19.90;45.00;;;;;;4940652;29;20936;-80
2023/05/25 05:04:31;;;;;;;7.27;5.87;;;19.90;45.00;;;;;;4947833;28;20494;-80
2023/05/25 05:07:00;;;;;;;7.57;5.70;;;19.90;44.90;;;;;;4935117;29;20459;-80
2023/05/25 05:09:28;;;;;;;7.93;5.40;;;19.80;44.90;;;;;;4937855;29;20439;-80
2023/05/25 05:11:56;;;;;;;7.10;5.53;;;19.90;45.00;;;;;;4935820;29;20475;-80
2023/05/25 05:14:24;;;;;;;7.17;5.80;;;19.90;45.00;;;;;;4940310;28;20455;-80
2023/05/25 05:16:52;;;;;;;9.50;5.97;;;19.90;44.90;;;;;;4945371;29;20494;-81
2023/05/25 05:19:21;;;;;;;8.87;5.70;;;19.90;44.80;;;;;;4946397;29;20444;-81
2023/05/25 05:21:51;;;;;;;7.37;5.17;;;19.90;45.40;;;;;;4945171;29;20523;-80
2023/05/25 05:24:19;;;;;;;6.63;5.20;;;20.00;44.90;;;;;;4936245;29;20478;-80
2023/05/25 05:26:47;;;;;;;8.70;5.30;;;20.00;44.80;;;;;;4935996;29;20452;-80
2023/05/25 05:29:22;;;;;;;7.07;5.00;;;20.10;44.80;;;;;;4940217;29;20506;-81
2023/05/25 05:31:50;;;;;;;8.30;5.17;;;20.20;44.80;;;;;;4935110;29;20476;-80
2023/05/25 05:34:18;;;;;;;7.97;5.30;;;20.20;44.60;;;;;;4932760;29;20523;-80
2023/05/25 05:36:46;;;;;;;8.13;5.47;;;20.30;44.60;;;;;;4926028;29;20452;-81
2023/05/25 05:39:26;;;;;;;7.13;5.10;;;20.30;44.60;;;;;;4932282;29;20451;-80
2023/05/25 05:41:55;;;;;;;6.90;5.87;;;20.30;44.50;;;;;;4938135;29;20444;-80
2023/05/25 05:44:24;;;;;;;7.17;5.20;;;20.30;44.40;;;;;;4935597;29;20478;-79
2023/05/25 05:46:58;;;;;;;10.20;5.23;;;20.40;44.70;;;;;;4936048;29;20456;-80
2023/05/25 05:49:36;;;;;;;7.30;4.60;;;20.30;45.30;;;;;;4938435;29;20439;-80
2023/05/25 05:52:05;;;;;;;7.23;4.30;;;20.40;44.90;;;;;;4935570;29;20475;-80
2023/05/25 05:54:35;;;;;;;6.20;4.63;;;20.40;44.80;;;;;;4936122;29;20478;-80
2023/05/25 05:57:03;;;;;;;6.83;4.47;;;20.40;45.00;;;;;;4935016;29;20456;-80
2023/05/25 05:59:31;;;;;;;6.57;4.10;;;20.40;44.90;;;;;;4935338;29;20451;-81
2023/05/25 06:02:00;;;;;;;7.87;4.50;;;20.40;45.20;;;;;;4936103;29;20459;-80
2023/05/25 06:04:28;;;;;;;7.17;4.50;;;20.40;45.00;;;;;;4935269;29;20480;-81
2023/05/25 06:06:58;;;;;;;6.53;4.27;;;20.50;45.40;;;;;;4942179;29;20451;-80
2023/05/25 06:09:26;;;;;;;5.00;4.10;;;20.50;45.00;;;;;;4934431;29;20456;-80
2023/05/25 06:11:56;;;;;;;5.80;4.40;;;20.60;45.00;;;;;;4941269;29;20475;-80
2023/05/25 06:14:24;;;;;;;7.47;4.60;;;20.70;45.00;;;;;;4931789;29;20825;-80
2023/05/25 06:16:55;;;;;;;5.00;3.93;;;20.70;45.00;;;;;;4940544;29;20471;-80
2023/05/25 06:19:23;;;;;;;7.77;5.00;;;20.70;44.80;;;;;;4938558;29;20444;-81
2023/05/25 06:21:51;;;;;;;4.70;4.30;;;20.80;44.90;;;;;;4939096;29;20451;-80
2023/05/25 06:28:02;;;;;;;7.20;4.73;;;20.90;44.80;;;;;;4934626;29;20399;-81
2023/05/25 06:30:30;;;;;;;5.20;4.00;;;20.90;44.90;;;;;;4948567;29;20554;-82
2023/05/25 06:32:58;;;;;;;4.87;4.20;;;20.90;44.80;;;;;;4951276;29;20472;-83
2023/05/25 06:35:26;;;;;;;6.40;4.30;;;20.90;44.80;;;;;;4956054;29;20454;-83
2023/05/25 06:37:56;;;;;;;7.17;4.60;;;21.00;44.70;;;;;;4949141;29;20451;-83
2023/05/25 06:40:24;;;;;;;5.17;4.07;;;21.00;44.70;;;;;;4959691;29;20451;-82
2023/05/25 06:42:52;;;;;;;4.87;4.40;;;21.10;44.90;;;;;;4949000;29;20448;-80
2023/05/25 06:45:24;;;;;;;5.40;3.87;;;21.20;44.90;;;;;;4961416;28;20480;-81
2023/05/25 06:47:52;;;;;;;6.30;4.47;;;21.20;44.80;;;;;;4961657;28;20518;-82
2023/05/25 06:50:20;;;;;;;4.90;3.60;;;21.30;44.60;;;;;;4965984;29;20447;-84
2023/05/25 06:56:19;;;;;;;7.63;4.50;;;21.40;44.60;;;;;;5044704;22;20492;-81
2023/05/25 06:58:48;;;;;;;4.23;3.83;;;21.50;44.80;;;;;;5007461;28;20437;-80
2023/05/25 07:01:18;;;;;;;4.40;4.00;;;21.50;44.50;;;;;;5006572;28;20461;-80
2023/05/25 07:03:48;;;;;;;5.30;3.77;;;21.70;44.70;;;;;;5007112;28;20464;-80
2023/05/25 07:06:17;;;;;;;5.53;3.60;;;21.80;44.70;;;;;;5037108;28;20447;-80
2023/05/25 07:08:54;;;;;;;8.10;3.77;;;21.90;44.30;;;;;;5032584;28;20448;-82
2023/05/25 07:11:22;;;;;;;5.43;3.80;;;21.90;44.90;;;;;;5022685;28;20475;-81
2023/05/25 07:13:53;;;;;;;4.57;3.50;;;22.00;44.90;;;;;;5009659;28;20469;-80
2023/05/25 07:16:25;;;;;;;7.90;3.70;;;22.10;45.10;;;;;;5014457;28;20449;-81
2023/05/25 07:18:53;;;;;;;3.80;3.30;;;22.20;45.20;;;;;;5022913;28;20441;-80
2023/05/25 07:21:25;;;;;;;5.83;3.50;;;22.20;44.50;;;;;;5020245;28;20498;-80
2023/05/25 07:23:56;;;;;;;7.27;4.20;;;22.20;44.90;;;;;;5023234;28;20442;-80
2023/05/25 07:26:26;;;;;;;8.60;4.13;;;22.20;45.20;;;;;;5021236;28;20491;-83
2023/05/25 07:28:54;;;;;;;5.27;3.60;;;22.30;45.20;;;;;;5021381;28;20456;-80
2023/05/25 07:31:23;;;;;;;4.07;3.13;;;22.30;44.80;;;;;;5020613;28;20507;-80
2023/05/25 07:33:54;;;;;;;4.30;3.37;;;22.30;44.90;;;;;;5020720;28;20531;-80
2023/05/25 07:36:23;;;;;;;4.30;3.57;;;22.30;45.00;;;;;;5020585;28;20452;-80
2023/05/25 07:38:51;;;;;;;7.63;3.93;;;22.30;45.00;;;;;;5036829;28;20448;-80
2023/05/25 07:41:20;;;;;;;8.23;3.50;;;22.40;45.10;;;;;;5021943;28;20444;-82
2023/05/25 07:43:48;;;;;;;7.90;3.50;;;22.50;44.90;;;;;;5018314;28;20445;-80
2023/05/25 07:46:19;;;;;;;11.03;4.03;;;22.50;44.80;;;;;;5032724;28;20466;-81
2023/05/25 07:48:49;;;;;;;7.23;3.43;;;22.50;44.60;;;;;;5013334;28;20474;-80
2023/05/25 07:51:17;;;;;;;7.40;3.53;;;22.60;45.50;;;;;;5021259;28;20448;-81
2023/05/25 07:53:45;;;;;;;8.03;3.30;;;22.70;44.80;;;;;;5020190;28;20440;-86
2023/05/25 07:56:14;;;;;;;8.40;3.67;;;22.90;44.90;;;;;;5031023;28;20436;-85
2023/05/25 07:58:42;;;;;;;10.90;3.40;;;23.10;44.80;;;;;;5042374;28;20436;-85
2023/05/25 08:01:10;;;;;;;6.63;3.20;;;23.20;44.80;;;;;;5035790;28;20444;-81
2023/05/25 08:03:38;;;;;;;6.97;3.00;;;23.40;44.70;;;;;;5039622;28;20456;-81
2023/05/25 08:06:18;;;;;;;7.03;3.83;;;23.40;44.50;;;;;;5030401;28;20458;-83
2023/05/25 08:08:46;;;;;;;11.00;3.30;;;23.40;44.40;;;;;;5027939;28;20444;-83
2023/05/25 08:11:27;;;;;;;8.03;3.70;;;23.50;44.40;;;;;;5029104;28;20452;-80
2023/05/25 08:14:08;;;;;;;8.37;3.67;;;23.50;44.40;;;;;;5024908;28;20464;-79
2023/05/25 08:16:44;;;;;;;7.80;3.60;;;23.60;44.70;;;;;;5023797;28;20865;-80
2023/05/25 08:19:15;;;;;;;8.13;3.77;;;23.70;44.50;;;;;;5020106;28;20444;-79
2023/05/25 08:21:52;;;;;;;10.80;4.27;;;23.90;44.40;;;;;;5021215;28;20440;-80
2023/05/25 08:24:22;;;;;;;11.17;3.70;;;23.90;44.20;;;;;;5020216;28;20456;-80
2023/05/25 08:26:56;;;;;;;11.37;3.50;;;23.90;44.10;;;;;;5020380;28;20432;-78
2023/05/25 08:29:30;;;;;;;8.47;3.87;;;23.80;43.90;;;;;;5019529;28;20547;-81
2023/05/25 08:32:10;;;;;;;7.20;3.07;;;23.80;44.00;;;;;;5018574;28;20476;-79
2023/05/25 08:34:44;;;;;;;11.37;4.10;;;23.80;44.20;;;;;;5019267;28;20485;-82
2023/05/25 08:37:14;;;;;;;10.90;3.70;;;23.80;44.10;;;;;;5021709;28;20440;-83
2023/05/25 08:39:43;;;;;;;12.20;3.97;;;23.90;44.00;;;;;;5007211;28;20441;-82
2023/05/25 08:42:11;;;;;;;8.53;3.83;;;23.90;44.00;;;;;;5017217;28;20441;-80
2023/05/25 08:44:41;;;;;;;7.73;3.97;;;23.90;43.90;;;;;;5016886;28;20460;-80
2023/05/25 08:47:10;;;;;;;11.40;3.90;;;23.90;43.80;;;;;;5012309;28;20449;-80
2023/05/25 08:49:40;;;;;;;9.20;4.30;;;23.90;43.80;;;;;;5017654;28;20467;-79
2023/05/25 08:52:09;;;;;;;10.50;4.17;;;23.90;43.90;;;;;;5017523;28;20555;-77
2023/05/25 08:54:39;;;;;;;13.93;3.83;;;23.90;43.80;;;;;;5010903;28;20479;-80
2023/05/25 08:57:11;;;;;;;15.50;4.30;;;23.90;43.80;;;;;;5012374;28;20438;-78
2023/05/25 08:59:47;;;;;;;14.63;4.20;;;24.00;43.60;;;;;;5012860;28;20453;-82
2023/05/25 09:02:30;;;;;;;10.80;3.40;;;24.10;43.70;;;;;;5002033;28;20459;-82
2023/05/25 09:05:02;;;;;;;7.30;3.87;;;24.30;43.90;;;;;;5008816;28;20492;-82
2023/05/25 09:07:42;;;;;;;10.27;3.93;;;24.50;43.80;;;;;;5016216;28;20448;-81
2023/05/25 09:10:16;;;;;;;11.20;4.40;;;24.70;43.40;;;;;;5018651;28;20445;-82
2023/05/25 09:12:45;;;;;;;12.23;3.83;;;24.80;43.00;;;;;;5018025;28;20531;-79
2023/05/25 09:15:17;;;;;;;20.27;4.30;;;24.80;42.60;;;;;;5018312;28;20468;-80
2023/05/25 09:17:46;;;;;;;15.70;4.90;;;24.80;42.60;;;;;;5019733;28;20791;-81
2023/05/25 09:20:18;;;;;;;14.30;3.87;;;24.80;42.40;;;;;;5011613;28;20445;-80
2023/05/25 09:22:47;;;;;;;12.80;4.27;;;24.90;42.30;;;;;;5027142;28;20447;-82
2023/05/25 09:25:20;;;;;;;11.20;3.80;;;25.00;42.60;;;;;;5023157;28;20495;-83
2023/05/25 09:27:55;;;;;;;12.00;4.30;;;25.20;42.50;;;;;;5024864;28;20459;-81
2023/05/25 09:30:35;;;;;;;9.67;4.10;;;25.30;42.30;;;;;;5020591;28;20440;-82
2023/05/25 09:33:30;;;;;;;11.63;4.10;;;25.40;42.00;;;;;;5019430;28;20479;-79
2023/05/25 09:36:08;;;;;;;12.40;4.90;;;25.40;41.80;;;;;;5007905;28;20512;-80
2023/05/25 09:42:00;;;;;;;13.07;4.07;;;25.40;41.60;;;;;;5028837;28;20443;-81
2023/05/25 09:45:04;;;;;;;9.87;4.20;;;25.40;41.60;;;;;;5026447;28;20526;-82
2023/05/25 09:48:42;;;;;;;18.30;4.77;;;25.40;41.60;;;;;;5009453;28;20408;-81
2023/05/25 09:51:29;;;;;;;14.23;4.07;;;25.30;41.20;;;;;;5020541;28;20444;-80
2023/05/25 09:54:37;;;;;;;13.27;4.03;;;25.30;41.30;;;;;;5013694;28;20472;-81
2023/05/25 10:04:12;;;;;;;12.87;4.50;;;25.60;41.60;;;;;;5010251;28;20456;-82
2023/05/25 10:07:22;;;;;;;11.63;4.13;;;25.40;41.00;;;;;;5017358;28;20436;-83
2023/05/25 10:10:14;;;;;;;11.67;3.90;;;25.40;41.20;;;;;;5024943;28;20471;-82
2023/05/25 10:17:37;;;;;;;14.90;4.53;;;25.30;41.30;;;;;;5025498;28;20449;-80
2023/05/25 10:24:25;;;;;;;16.70;4.27;;;25.40;41.30;;;;;;5001250;28;20456;-82
2023/05/25 10:27:32;;;;;;;14.37;4.60;;;25.60;41.30;;;;;;5022610;28;20440;-82
2023/05/25 10:30:53;;;;;;;;;;;;;;;;;;;;;
2023/05/25 10:34:24;;;;;;;;;;;;;;;;;;;;;
2023/05/25 10:40:49;;;;;;;13.90;4.80;;;25.90;40.60;;;;;;5007769;28;20444;-82
2023/05/25 10:44:01;;;;;;;17.00;5.37;;;25.90;40.60;;;;;;5017334;28;20432;-82
2023/05/25 10:50:41;;;;;;;13.13;4.47;;;25.90;40.40;;;;;;5017441;28;20428;-82
2023/05/25 10:56:29;;;;;;;13.40;5.37;;;26.50;40.10;;;;;;4902311;29;20431;-84
2023/05/25 10:59:27;;;;;;;9.50;4.13;;;26.60;39.80;;;;;;4903592;29;20419;-84
2023/05/25 11:02:01;;;;;;;14.93;5.13;;;26.60;39.80;;;;;;4905429;29;20446;-83
2023/05/25 11:04:39;;;;;;;18.83;4.97;;;26.50;39.70;;;;;;4924395;29;20460;-86
2023/05/25 11:07:21;;;;;;;10.90;4.40;;;26.60;39.60;;;;;;4903095;29;20509;-84
2023/05/25 11:10:05;;;;;;;12.83;4.50;;;26.60;39.50;;;;;;4898257;29;20457;-84
2023/05/25 11:12:54;;;;;;;15.30;5.10;;;26.60;39.50;;;;;;4901630;29;20425;-85
2023/05/25 11:15:38;;;;;;;16.47;5.10;;;26.70;39.40;;;;;;4899926;29;20458;-85
2023/05/25 11:18:16;;;;;;;10.77;4.90;;;27.20;40.60;;;;;;4895671;29;20425;-83
2023/05/25 11:20:48;;;;;;;12.60;4.33;;;27.90;39.10;;;;;;4904543;29;20424;-82
2023/05/25 11:27:57;;;;;;;;;;;;;;;;;;;;;
2023/05/25 11:34:04;;;;;;;13.23;5.03;;;28.50;36.90;;;;;;4901513;29;20487;-82
2023/05/25 11:37:02;;;;;;;14.30;5.37;;;28.70;37.30;;;;;;4901204;29;20454;-80
2023/05/25 11:39:44;;;;;;;11.90;3.97;;;28.70;37.20;;;;;;4843460;29;20431;-83
2023/05/25 11:51:18;;;;;;;18.00;5.10;;;31.30;34.40;;;;;;4759538;29;20409;-81
2023/05/25 11:54:14;;;;;;;10.23;3.87;;;31.50;34.60;;;;;;4841178;29;20438;-83
2023/05/25 11:57:21;;;;;;;7.70;4.17;;;32.20;32.90;;;;;;4866592;29;20516;-83
2023/05/25 12:00:16;;;;;;;11.47;4.70;;;31.60;32.80;;;;;;4906507;29;20427;-82
2023/05/25 12:03:30;;;;;;;;;;;;;;;;;;;;;
2023/05/25 12:14:11;;;;;;;11.47;4.27;;;32.50;34.20;;;;;;4912432;29;20942;-86
2023/05/25 12:16:59;;;;;;;10.00;3.93;;;33.70;31.00;;;;;;4862311;29;20460;-81
2023/05/25 12:19:32;;;;;;;15.23;3.97;;;34.20;30.00;;;;;;4867782;29;20571;-80
2023/05/25 12:22:30;;;;;;;8.50;3.63;;;33.50;30.20;;;;;;4936847;29;20932;-83
2023/05/25 12:25:26;;;;;;;10.40;4.10;;;33.50;30.80;;;;;;4914375;29;20567;-82
2023/05/25 12:31:38;;;;;;;14.03;4.67;;;32.30;31.20;;;;;;4927197;29;20438;-83
2023/05/25 12:34:21;;;;;;;11.13;3.87;;;32.40;31.50;;;;;;4996431;23;20480;-81
2023/05/25 12:36:54;;;;;;;15.77;4.47;;;33.30;32.10;;;;;;5012126;28;20436;-82
2023/05/25 12:39:38;;;;;;;12.83;3.63;;;33.40;30.50;;;;;;5012148;28;20464;-84
2023/05/25 12:45:29;;;;;;;9.87;3.83;;;33.30;30.50;;;;;;4996251;28;20531;-83
2023/05/25 12:47:57;;;;;;;10.53;4.07;;;34.10;30.80;;;;;;4994356;28;20446;-80
2023/05/25 12:50:30;;;;;;;7.10;3.93;;;34.60;30.40;;;;;;4990174;28;20541;-81
2023/05/25 12:53:01;;;;;;;8.90;3.80;;;33.90;30.10;;;;;;4994063;28;20532;-79
2023/05/25 12:55:32;;;;;;;8.20;3.67;;;33.40;30.60;;;;;;4989225;28;20461;-81
2023/05/25 12:58:08;;;;;;;8.30;3.97;;;33.80;31.30;;;;;;4983970;28;20476;-82
2023/05/25 13:00:41;;;;;;;12.03;4.20;;;34.20;30.80;;;;;;4996007;28;20439;-81
2023/05/25 13:03:10;;;;;;;9.40;4.00;;;34.50;30.80;;;;;;4996325;28;20482;-83
2023/05/25 13:05:50;;;;;;;7.77;3.40;;;34.60;30.40;;;;;;4993186;28;20480;-83
2023/05/25 13:08:33;;;;;;;9.80;4.17;;;34.60;30.20;;;;;;4995694;28;20939;-81
2023/05/25 13:11:09;;;;;;;12.47;3.97;;;34.30;30.00;;;;;;4996107;28;20445;-82
2023/05/25 13:13:46;;;;;;;11.93;4.27;;;34.10;30.70;;;;;;4995698;28;20451;-82
2023/05/25 13:16:17;;;;;;;10.97;4.60;;;34.10;31.10;;;;;;4994300;28;20460;-84
2023/05/25 13:18:48;;;;;;;13.13;4.47;;;34.10;31.20;;;;;;4996173;28;21090;-83
2023/05/25 13:21:18;;;;;;;12.50;3.93;;;33.90;31.20;;;;;;4996268;28;20504;-81
2023/05/25 13:23:47;;;;;;;12.57;4.10;;;33.90;31.40;;;;;;4990472;28;20453;-82
2023/05/25 13:26:36;;;;;;;8.80;4.17;;;33.80;31.30;;;;;;4989157;28;20437;-81
2023/05/25 13:29:07;;;;;;;12.00;4.00;;;33.70;31.30;;;;;;4990370;28;20530;-80
2023/05/25 13:31:36;;;;;;;9.87;4.10;;;33.80;31.60;;;;;;4984961;28;20510;-80
2023/05/25 13:34:04;;;;;;;7.27;3.40;;;33.80;31.70;;;;;;4977437;28;20476;-83
2023/05/25 13:36:33;;;;;;;7.70;4.03;;;33.70;31.70;;;;;;4988599;28;20474;-81
2023/05/25 13:39:04;;;;;;;11.10;4.17;;;33.60;31.70;;;;;;4991386;28;20492;-83
2023/05/25 13:41:36;;;;;;;8.70;3.63;;;33.40;32.00;;;;;;4992042;28;20441;-82
2023/05/25 13:44:04;;;;;;;8.70;4.23;;;33.50;32.10;;;;;;4980519;28;21053;-84
2023/05/25 13:46:34;;;;;;;6.90;3.77;;;33.50;31.70;;;;;;4996482;28;20449;-84
2023/05/25 13:49:03;;;;;;;8.37;3.63;;;33.60;31.90;;;;;;4993750;28;20460;-83
2023/05/25 13:51:34;;;;;;;9.20;4.10;;;33.50;32.00;;;;;;4989208;28;20452;-84
2023/05/25 13:54:11;;;;;;;14.63;4.43;;;33.50;31.80;;;;;;4997419;28;20519;-84
2023/05/25 13:56:55;;;;;;;11.93;4.57;;;33.60;31.80;;;;;;4993580;28;20453;-83
2023/05/25 13:59:45;;;;;;;8.40;3.80;;;33.60;31.80;;;;;;4984897;28;20446;-84
2023/05/25 14:02:18;;;;;;;12.60;3.80;;;33.40;31.90;;;;;;4988973;28;20449;-85
2023/05/25 14:04:46;;;;;;;7.70;3.90;;;33.40;31.90;;;;;;4997695;28;20448;-84
2023/05/25 14:07:15;;;;;;;7.83;4.00;;;33.40;31.80;;;;;;4989571;28;20451;-82
2023/05/25 14:09:43;;;;;;;11.07;3.90;;;33.30;32.00;;;;;;5004304;28;20499;-82
2023/05/25 14:12:13;;;;;;;8.50;3.77;;;33.20;32.00;;;;;;4987583;28;20473;-79
2023/05/25 14:14:41;;;;;;;12.20;4.43;;;33.10;32.20;;;;;;4977126;28;20448;-80
2023/05/25 14:17:09;;;;;;;8.40;3.90;;;33.10;32.20;;;;;;4996302;28;20469;-80
2023/05/25 14:19:38;;;;;;;11.00;3.90;;;33.10;32.80;;;;;;4996123;28;20448;-80
2023/05/25 14:22:08;;;;;;;9.17;4.67;;;33.00;32.20;;;;;;4983876;28;20480;-81
2023/05/25 14:24:41;;;;;;;12.60;4.80;;;32.90;32.20;;;;;;4998321;28;20469;-78
2023/05/25 14:27:09;;;;;;;15.93;4.90;;;32.10;29.80;;;;;;4992230;28;20456;-78
2023/05/25 14:29:39;;;;;;;17.80;4.33;;;31.60;30.60;;;;;;4985703;28;21012;-78
2023/05/25 14:32:07;;;;;;;13.17;4.10;;;31.20;31.10;;;;;;4987785;28;20449;-78